sensor_id;sensor_type;location;lat;lon;timestamp;P1;durP1;ratioP1;P2;durP2;ratioP2
8480;SDS011;4277;51.354;6.740;2023-02-11T00:02:04;33.63;;;22.27;;
8480;SDS011;4277;51.354;6.740;2023-02-11T00:04:32;33.63;;;21.60;;
8480;SDS011;4277;51.354;6.740;2023-02-11T00:06:58;31.90;;;21.80;;
8480;SDS011;4277;51.354;6.740;2023-02-11T00:09:23;32.90;;;22.07;;
8480;SDS011;4277;51.354;6.740;2023-02-11T00:11:49;33.43;;;22.23;;
8480;SDS011;4277;51.354;6.740;2023-02-11T00:14:15;33.90;;;21.90;;
8480;SDS011;4277;51.354;6.740;2023-02-11T00:16:41;34.03;;;21.77;;
8480;SDS011;4277;51.354;6.740;2023-02-11T00:19:08;34.73;;;22.03;;
8480;SDS011;4277;51.354;6.740;2023-02-11T00:21:34;33.70;;;21.50;;
8480;SDS011;4277;51.354;6.740;2023-02-11T00:24:00;36.13;;;21.27;;
8480;SDS011;4277;51.354;6.740;2023-02-11T00:26:33;31.23;;;21.23;;
8480;SDS011;4277;51.354;6.740;2023-02-11T00:28:59;31.00;;;20.23;;
8480;SDS011;4277;51.354;6.740;2023-02-11T00:31:26;29.60;;;20.43;;
8480;SDS011;4277;51.354;6.740;2023-02-11T00:33:52;28.80;;;20.60;;
8480;SDS011;4277;51.354;6.740;2023-02-11T00:36:19;28.10;;;20.63;;
8480;SDS011;4277;51.354;6.740;2023-02-11T00:38:46;30.97;;;20.40;;
8480;SDS011;4277;51.354;6.740;2023-02-11T00:41:12;30.27;;;21.03;;
8480;SDS011;4277;51.354;6.740;2023-02-11T00:43:38;29.43;;;19.53;;
8480;SDS011;4277;51.354;6.740;2023-02-11T00:46:05;28.50;;;19.73;;
8480;SDS011;4277;51.354;6.740;2023-02-11T00:48:31;29.20;;;20.30;;
8480;SDS011;4277;51.354;6.740;2023-02-11T00:50:57;30.60;;;20.23;;
8480;SDS011;4277;51.354;6.740;2023-02-11T00:53:23;27.57;;;19.77;;
8480;SDS011;4277;51.354;6.740;2023-02-11T00:55:49;28.73;;;19.67;;
8480;SDS011;4277;51.354;6.740;2023-02-11T00:58:14;30.13;;;19.77;;
8480;SDS011;4277;51.354;6.740;2023-02-11T01:00:40;29.50;;;19.50;;
8480;SDS011;4277;51.354;6.740;2023-02-11T01:03:06;29.00;;;19.80;;
8480;SDS011;4277;51.354;6.740;2023-02-11T01:05:32;27.83;;;19.00;;
8480;SDS011;4277;51.354;6.740;2023-02-11T01:07:58;24.67;;;17.20;;
8480;SDS011;4277;51.354;6.740;2023-02-11T01:10:24;28.20;;;18.83;;
8480;SDS011;4277;51.354;6.740;2023-02-11T01:12:50;27.90;;;19.03;;
8480;SDS011;4277;51.354;6.740;2023-02-11T01:15:17;27.37;;;19.10;;
8480;SDS011;4277;51.354;6.740;2023-02-11T01:17:43;27.80;;;19.03;;
8480;SDS011;4277;51.354;6.740;2023-02-11T01:20:13;27.20;;;18.37;;
8480;SDS011;4277;51.354;6.740;2023-02-11T01:22:39;26.77;;;18.20;;
8480;SDS011;4277;51.354;6.740;2023-02-11T01:25:06;25.07;;;17.90;;
8480;SDS011;4277;51.354;6.740;2023-02-11T01:27:32;28.07;;;18.33;;
8480;SDS011;4277;51.354;6.740;2023-02-11T01:29:58;27.03;;;19.10;;
8480;SDS011;4277;51.354;6.740;2023-02-11T01:32:24;27.80;;;19.00;;
8480;SDS011;4277;51.354;6.740;2023-02-11T01:34:50;29.30;;;18.07;;
8480;SDS011;4277;51.354;6.740;2023-02-11T01:37:16;27.77;;;17.63;;
8480;SDS011;4277;51.354;6.740;2023-02-11T01:39:42;24.50;;;18.00;;
8480;SDS011;4277;51.354;6.740;2023-02-11T01:42:10;27.33;;;17.10;;
8480;SDS011;4277;51.354;6.740;2023-02-11T01:44:40;28.57;;;18.40;;
8480;SDS011;4277;51.354;6.740;2023-02-11T01:47:06;26.17;;;19.07;;
8480;SDS011;4277;51.354;6.740;2023-02-11T01:49:33;27.33;;;18.87;;
8480;SDS011;4277;51.354;6.740;2023-02-11T01:52:01;32.93;;;19.93;;
8480;SDS011;4277;51.354;6.740;2023-02-11T01:54:29;28.90;;;19.03;;
8480;SDS011;4277;51.354;6.740;2023-02-11T01:57:15;32.17;;;19.30;;
8480;SDS011;4277;51.354;6.740;2023-02-11T02:02:18;28.73;;;19.33;;
8480;SDS011;4277;51.354;6.740;2023-02-11T02:04:58;31.70;;;19.57;;
8480;SDS011;4277;51.354;6.740;2023-02-11T02:07:32;28.97;;;18.67;;
8480;SDS011;4277;51.354;6.740;2023-02-11T02:10:02;28.57;;;18.40;;
8480;SDS011;4277;51.354;6.740;2023-02-11T02:12:29;25.17;;;18.37;;
8480;SDS011;4277;51.354;6.740;2023-02-11T02:17:41;27.57;;;19.10;;
8480;SDS011;4277;51.354;6.740;2023-02-11T02:20:17;29.70;;;19.07;;
8480;SDS011;4277;51.354;6.740;2023-02-11T02:23:04;26.50;;;18.17;;
8480;SDS011;4277;51.354;6.740;2023-02-11T02:25:53;32.87;;;19.53;;
8480;SDS011;4277;51.354;6.740;2023-02-11T02:31:05;30.47;;;19.00;;
8480;SDS011;4277;51.354;6.740;2023-02-11T02:36:18;28.53;;;18.63;;
8480;SDS011;4277;51.354;6.740;2023-02-11T02:38:54;29.13;;;18.03;;
8480;SDS011;4277;51.354;6.740;2023-02-11T02:41:22;27.40;;;18.77;;
8480;SDS011;4277;51.354;6.740;2023-02-11T02:43:50;28.07;;;18.27;;
8480;SDS011;4277;51.354;6.740;2023-02-11T02:46:20;26.90;;;18.50;;
8480;SDS011;4277;51.354;6.740;2023-02-11T02:48:47;26.23;;;18.13;;
8480;SDS011;4277;51.354;6.740;2023-02-11T02:54:23;28.57;;;18.37;;
8480;SDS011;4277;51.354;6.740;2023-02-11T02:59:26;28.77;;;18.30;;
8480;SDS011;4277;51.354;6.740;2023-02-11T03:04:28;25.43;;;16.67;;
8480;SDS011;4277;51.354;6.740;2023-02-11T03:07:08;25.13;;;17.03;;
8480;SDS011;4277;51.354;6.740;2023-02-11T03:09:38;25.40;;;16.60;;
8480;SDS011;4277;51.354;6.740;2023-02-11T03:12:05;27.67;;;17.43;;
8480;SDS011;4277;51.354;6.740;2023-02-11T03:14:32;25.37;;;17.00;;
8480;SDS011;4277;51.354;6.740;2023-02-11T03:16:58;24.27;;;16.10;;
8480;SDS011;4277;51.354;6.740;2023-02-11T03:19:27;23.90;;;16.23;;
8480;SDS011;4277;51.354;6.740;2023-02-11T03:21:55;26.13;;;17.10;;
8480;SDS011;4277;51.354;6.740;2023-02-11T03:24:24;28.10;;;16.87;;
8480;SDS011;4277;51.354;6.740;2023-02-11T03:26:52;26.40;;;15.83;;
8480;SDS011;4277;51.354;6.740;2023-02-11T03:29:30;24.57;;;16.17;;
8480;SDS011;4277;51.354;6.740;2023-02-11T03:37:12;26.67;;;15.80;;
8480;SDS011;4277;51.354;6.740;2023-02-11T03:39:52;23.80;;;16.00;;
8480;SDS011;4277;51.354;6.740;2023-02-11T03:42:19;30.20;;;16.07;;
8480;SDS011;4277;51.354;6.740;2023-02-11T03:44:48;24.37;;;15.67;;
8480;SDS011;4277;51.354;6.740;2023-02-11T03:47:16;26.03;;;15.63;;
8480;SDS011;4277;51.354;6.740;2023-02-11T03:49:43;26.33;;;16.53;;
8480;SDS011;4277;51.354;6.740;2023-02-11T03:52:10;23.83;;;15.77;;
8480;SDS011;4277;51.354;6.740;2023-02-11T03:54:37;25.37;;;15.80;;
8480;SDS011;4277;51.354;6.740;2023-02-11T03:57:03;26.83;;;16.23;;
8480;SDS011;4277;51.354;6.740;2023-02-11T03:59:29;30.17;;;16.50;;
8480;SDS011;4277;51.354;6.740;2023-02-11T04:01:55;24.60;;;15.57;;
8480;SDS011;4277;51.354;6.740;2023-02-11T04:04:23;25.23;;;15.73;;
8480;SDS011;4277;51.354;6.740;2023-02-11T04:06:49;29.93;;;16.90;;
8480;SDS011;4277;51.354;6.740;2023-02-11T04:09:16;25.80;;;15.77;;
8480;SDS011;4277;51.354;6.740;2023-02-11T04:11:42;23.70;;;16.10;;
8480;SDS011;4277;51.354;6.740;2023-02-11T04:14:07;27.53;;;14.97;;
8480;SDS011;4277;51.354;6.740;2023-02-11T04:16:33;27.07;;;16.10;;
8480;SDS011;4277;51.354;6.740;2023-02-11T04:18:59;28.63;;;15.87;;
8480;SDS011;4277;51.354;6.740;2023-02-11T04:21:25;23.43;;;16.10;;
8480;SDS011;4277;51.354;6.740;2023-02-11T04:23:51;26.27;;;15.97;;
8480;SDS011;4277;51.354;6.740;2023-02-11T04:26:17;28.23;;;15.17;;
8480;SDS011;4277;51.354;6.740;2023-02-11T04:28:43;29.30;;;15.80;;
8480;SDS011;4277;51.354;6.740;2023-02-11T04:31:09;28.20;;;15.77;;
8480;SDS011;4277;51.354;6.740;2023-02-11T04:33:36;32.40;;;16.33;;
8480;SDS011;4277;51.354;6.740;2023-02-11T04:36:02;24.87;;;15.63;;
8480;SDS011;4277;51.354;6.740;2023-02-11T04:38:28;24.53;;;16.10;;
8480;SDS011;4277;51.354;6.740;2023-02-11T04:40:54;24.90;;;15.37;;
8480;SDS011;4277;51.354;6.740;2023-02-11T04:43:22;26.97;;;16.33;;
8480;SDS011;4277;51.354;6.740;2023-02-11T04:45:48;29.37;;;17.20;;
8480;SDS011;4277;51.354;6.740;2023-02-11T04:48:14;29.03;;;18.10;;
8480;SDS011;4277;51.354;6.740;2023-02-11T04:50:40;28.93;;;17.47;;
8480;SDS011;4277;51.354;6.740;2023-02-11T04:53:06;35.13;;;17.60;;
8480;SDS011;4277;51.354;6.740;2023-02-11T04:55:32;26.53;;;17.63;;
8480;SDS011;4277;51.354;6.740;2023-02-11T04:57:57;29.43;;;18.50;;
8480;SDS011;4277;51.354;6.740;2023-02-11T05:00:23;34.20;;;20.30;;
8480;SDS011;4277;51.354;6.740;2023-02-11T05:02:49;30.27;;;19.83;;
8480;SDS011;4277;51.354;6.740;2023-02-11T05:05:15;32.87;;;20.00;;
8480;SDS011;4277;51.354;6.740;2023-02-11T05:07:41;30.33;;;19.83;;
8480;SDS011;4277;51.354;6.740;2023-02-11T05:10:07;31.90;;;19.33;;
8480;SDS011;4277;51.354;6.740;2023-02-11T05:12:33;37.97;;;21.23;;
8480;SDS011;4277;51.354;6.740;2023-02-11T05:14:59;33.33;;;21.43;;
8480;SDS011;4277;51.354;6.740;2023-02-11T05:17:25;34.90;;;22.50;;
8480;SDS011;4277;51.354;6.740;2023-02-11T05:19:51;35.23;;;21.70;;
8480;SDS011;4277;51.354;6.740;2023-02-11T05:22:17;34.33;;;21.30;;
8480;SDS011;4277;51.354;6.740;2023-02-11T05:24:43;31.47;;;21.30;;
8480;SDS011;4277;51.354;6.740;2023-02-11T05:27:09;40.40;;;20.37;;
8480;SDS011;4277;51.354;6.740;2023-02-11T05:29:35;37.43;;;20.03;;
8480;SDS011;4277;51.354;6.740;2023-02-11T05:32:01;31.63;;;20.13;;
8480;SDS011;4277;51.354;6.740;2023-02-11T05:34:27;34.60;;;21.30;;
8480;SDS011;4277;51.354;6.740;2023-02-11T05:36:53;30.37;;;20.23;;
8480;SDS011;4277;51.354;6.740;2023-02-11T05:39:19;34.87;;;20.40;;
8480;SDS011;4277;51.354;6.740;2023-02-11T05:41:45;35.50;;;20.03;;
8480;SDS011;4277;51.354;6.740;2023-02-11T05:44:11;38.00;;;20.47;;
8480;SDS011;4277;51.354;6.740;2023-02-11T05:46:37;30.53;;;19.60;;
8480;SDS011;4277;51.354;6.740;2023-02-11T05:49:03;34.07;;;19.67;;
8480;SDS011;4277;51.354;6.740;2023-02-11T05:51:29;36.67;;;19.77;;
8480;SDS011;4277;51.354;6.740;2023-02-11T05:53:55;37.37;;;19.57;;
8480;SDS011;4277;51.354;6.740;2023-02-11T05:56:21;38.10;;;20.40;;
8480;SDS011;4277;51.354;6.740;2023-02-11T05:58:47;31.80;;;19.30;;
8480;SDS011;4277;51.354;6.740;2023-02-11T06:01:13;34.60;;;19.67;;
8480;SDS011;4277;51.354;6.740;2023-02-11T06:03:38;35.30;;;19.80;;
8480;SDS011;4277;51.354;6.740;2023-02-11T06:06:08;38.20;;;20.43;;
8480;SDS011;4277;51.354;6.740;2023-02-11T06:08:34;33.73;;;20.30;;
8480;SDS011;4277;51.354;6.740;2023-02-11T06:10:59;38.07;;;20.13;;
8480;SDS011;4277;51.354;6.740;2023-02-11T06:13:25;35.77;;;19.87;;
8480;SDS011;4277;51.354;6.740;2023-02-11T06:15:55;36.20;;;18.73;;
8480;SDS011;4277;51.354;6.740;2023-02-11T06:18:21;34.33;;;20.40;;
8480;SDS011;4277;51.354;6.740;2023-02-11T06:20:47;34.30;;;19.60;;
8480;SDS011;4277;51.354;6.740;2023-02-11T06:23:13;36.00;;;19.70;;
8480;SDS011;4277;51.354;6.740;2023-02-11T06:25:39;35.37;;;19.13;;
8480;SDS011;4277;51.354;6.740;2023-02-11T06:28:05;37.47;;;20.07;;
8480;SDS011;4277;51.354;6.740;2023-02-11T06:30:31;32.57;;;19.90;;
8480;SDS011;4277;51.354;6.740;2023-02-11T06:32:57;42.07;;;21.20;;
8480;SDS011;4277;51.354;6.740;2023-02-11T06:35:23;46.37;;;21.10;;
8480;SDS011;4277;51.354;6.740;2023-02-11T06:37:49;37.37;;;19.93;;
8480;SDS011;4277;51.354;6.740;2023-02-11T06:40:17;40.73;;;20.50;;
8480;SDS011;4277;51.354;6.740;2023-02-11T06:42:43;34.43;;;20.37;;
8480;SDS011;4277;51.354;6.740;2023-02-11T06:45:10;40.03;;;20.20;;
8480;SDS011;4277;51.354;6.740;2023-02-11T06:47:37;38.70;;;20.17;;
8480;SDS011;4277;51.354;6.740;2023-02-11T06:50:03;39.80;;;21.57;;
8480;SDS011;4277;51.354;6.740;2023-02-11T06:52:29;42.23;;;19.67;;
8480;SDS011;4277;51.354;6.740;2023-02-11T06:54:55;38.57;;;20.20;;
8480;SDS011;4277;51.354;6.740;2023-02-11T06:57:21;38.87;;;19.77;;
8480;SDS011;4277;51.354;6.740;2023-02-11T06:59:47;36.13;;;19.77;;
8480;SDS011;4277;51.354;6.740;2023-02-11T07:02:13;36.97;;;19.67;;
8480;SDS011;4277;51.354;6.740;2023-02-11T07:04:39;38.33;;;20.17;;
8480;SDS011;4277;51.354;6.740;2023-02-11T07:07:05;41.37;;;21.10;;
8480;SDS011;4277;51.354;6.740;2023-02-11T07:09:31;36.27;;;20.17;;
8480;SDS011;4277;51.354;6.740;2023-02-11T07:11:57;36.50;;;18.33;;
8480;SDS011;4277;51.354;6.740;2023-02-11T07:14:23;40.33;;;21.13;;
8480;SDS011;4277;51.354;6.740;2023-02-11T07:16:49;41.33;;;21.63;;
8480;SDS011;4277;51.354;6.740;2023-02-11T07:19:15;37.77;;;21.60;;
8480;SDS011;4277;51.354;6.740;2023-02-11T07:21:41;43.10;;;22.47;;
8480;SDS011;4277;51.354;6.740;2023-02-11T07:24:07;48.60;;;22.37;;
8480;SDS011;4277;51.354;6.740;2023-02-11T07:26:34;48.37;;;22.17;;
8480;SDS011;4277;51.354;6.740;2023-02-11T07:28:59;49.93;;;22.23;;
8480;SDS011;4277;51.354;6.740;2023-02-11T07:31:26;44.00;;;22.10;;
8480;SDS011;4277;51.354;6.740;2023-02-11T07:33:54;43.37;;;21.77;;
8480;SDS011;4277;51.354;6.740;2023-02-11T07:36:20;45.27;;;21.93;;
8480;SDS011;4277;51.354;6.740;2023-02-11T07:38:46;45.63;;;21.70;;
8480;SDS011;4277;51.354;6.740;2023-02-11T07:41:13;46.03;;;20.87;;
8480;SDS011;4277;51.354;6.740;2023-02-11T07:43:40;40.73;;;21.90;;
8480;SDS011;4277;51.354;6.740;2023-02-11T07:46:07;40.53;;;21.50;;
8480;SDS011;4277;51.354;6.740;2023-02-11T07:48:33;48.30;;;21.83;;
8480;SDS011;4277;51.354;6.740;2023-02-11T07:53:31;45.17;;;22.37;;
8480;SDS011;4277;51.354;6.740;2023-02-11T07:55:57;47.77;;;22.00;;
8480;SDS011;4277;51.354;6.740;2023-02-11T07:58:23;47.40;;;22.87;;
8480;SDS011;4277;51.354;6.740;2023-02-11T08:00:49;46.47;;;22.80;;
8480;SDS011;4277;51.354;6.740;2023-02-11T08:03:15;45.53;;;22.87;;
8480;SDS011;4277;51.354;6.740;2023-02-11T08:05:41;43.13;;;22.83;;
8480;SDS011;4277;51.354;6.740;2023-02-11T08:08:07;48.33;;;21.97;;
8480;SDS011;4277;51.354;6.740;2023-02-11T08:10:33;48.63;;;23.40;;
8480;SDS011;4277;51.354;6.740;2023-02-11T08:13:00;47.17;;;22.60;;
8480;SDS011;4277;51.354;6.740;2023-02-11T08:15:26;47.37;;;22.70;;
8480;SDS011;4277;51.354;6.740;2023-02-11T08:17:52;42.53;;;21.70;;
8480;SDS011;4277;51.354;6.740;2023-02-11T08:20:18;50.43;;;22.03;;
8480;SDS011;4277;51.354;6.740;2023-02-11T08:22:44;47.90;;;21.80;;
8480;SDS011;4277;51.354;6.740;2023-02-11T08:25:10;56.33;;;24.03;;
8480;SDS011;4277;51.354;6.740;2023-02-11T08:27:36;45.60;;;21.53;;
8480;SDS011;4277;51.354;6.740;2023-02-11T08:30:02;50.90;;;23.77;;
8480;SDS011;4277;51.354;6.740;2023-02-11T08:32:28;50.13;;;23.37;;
8480;SDS011;4277;51.354;6.740;2023-02-11T08:34:55;43.60;;;22.93;;
8480;SDS011;4277;51.354;6.740;2023-02-11T08:37:20;45.90;;;24.23;;
8480;SDS011;4277;51.354;6.740;2023-02-11T08:39:46;42.57;;;21.97;;
8480;SDS011;4277;51.354;6.740;2023-02-11T08:42:12;47.83;;;23.27;;
8480;SDS011;4277;51.354;6.740;2023-02-11T08:44:41;49.13;;;25.07;;
8480;SDS011;4277;51.354;6.740;2023-02-11T08:47:07;54.10;;;24.97;;
8480;SDS011;4277;51.354;6.740;2023-02-11T08:49:33;57.80;;;25.80;;
8480;SDS011;4277;51.354;6.740;2023-02-11T08:52:00;48.80;;;25.10;;
8480;SDS011;4277;51.354;6.740;2023-02-11T08:54:28;47.63;;;24.13;;
8480;SDS011;4277;51.354;6.740;2023-02-11T08:56:54;48.03;;;24.50;;
8480;SDS011;4277;51.354;6.740;2023-02-11T08:59:20;50.93;;;26.23;;
8480;SDS011;4277;51.354;6.740;2023-02-11T09:01:46;50.90;;;24.90;;
8480;SDS011;4277;51.354;6.740;2023-02-11T09:04:12;44.80;;;24.63;;
8480;SDS011;4277;51.354;6.740;2023-02-11T09:06:38;58.43;;;25.13;;
8480;SDS011;4277;51.354;6.740;2023-02-11T09:09:04;46.73;;;23.63;;
8480;SDS011;4277;51.354;6.740;2023-02-11T09:11:34;41.43;;;23.90;;
8480;SDS011;4277;51.354;6.740;2023-02-11T09:14:00;55.43;;;26.27;;
8480;SDS011;4277;51.354;6.740;2023-02-11T09:16:27;54.37;;;26.53;;
8480;SDS011;4277;51.354;6.740;2023-02-11T09:18:57;43.87;;;23.10;;
8480;SDS011;4277;51.354;6.740;2023-02-11T09:21:23;53.40;;;26.77;;
8480;SDS011;4277;51.354;6.740;2023-02-11T09:23:49;48.20;;;26.37;;
8480;SDS011;4277;51.354;6.740;2023-02-11T09:26:17;56.30;;;27.57;;
8480;SDS011;4277;51.354;6.740;2023-02-11T09:28:43;49.93;;;27.20;;
8480;SDS011;4277;51.354;6.740;2023-02-11T09:31:10;50.43;;;26.23;;
8480;SDS011;4277;51.354;6.740;2023-02-11T09:33:36;49.30;;;25.07;;
8480;SDS011;4277;51.354;6.740;2023-02-11T09:36:03;53.80;;;26.00;;
8480;SDS011;4277;51.354;6.740;2023-02-11T09:38:29;51.27;;;25.67;;
8480;SDS011;4277;51.354;6.740;2023-02-11T09:40:55;49.13;;;26.20;;
8480;SDS011;4277;51.354;6.740;2023-02-11T09:43:23;46.20;;;24.47;;
8480;SDS011;4277;51.354;6.740;2023-02-11T09:45:49;46.30;;;24.07;;
8480;SDS011;4277;51.354;6.740;2023-02-11T09:48:21;47.80;;;24.87;;
8480;SDS011;4277;51.354;6.740;2023-02-11T09:50:49;51.23;;;25.73;;
8480;SDS011;4277;51.354;6.740;2023-02-11T09:55:42;46.83;;;24.60;;
8480;SDS011;4277;51.354;6.740;2023-02-11T09:58:11;51.33;;;25.37;;
8480;SDS011;4277;51.354;6.740;2023-02-11T10:00:39;48.40;;;25.77;;
8480;SDS011;4277;51.354;6.740;2023-02-11T10:05:47;44.87;;;24.50;;
8480;SDS011;4277;51.354;6.740;2023-02-11T10:08:19;46.57;;;24.57;;
8480;SDS011;4277;51.354;6.740;2023-02-11T10:10:56;39.50;;;24.93;;
8480;SDS011;4277;51.354;6.740;2023-02-11T10:13:43;47.13;;;24.93;;
8480;SDS011;4277;51.354;6.740;2023-02-11T10:16:24;52.20;;;26.63;;
8480;SDS011;4277;51.354;6.740;2023-02-11T10:19:02;46.43;;;26.23;;
8480;SDS011;4277;51.354;6.740;2023-02-11T10:21:38;45.23;;;24.57;;
8480;SDS011;4277;51.354;6.740;2023-02-11T10:24:12;43.30;;;23.90;;
8480;SDS011;4277;51.354;6.740;2023-02-11T10:26:38;48.60;;;25.23;;
8480;SDS011;4277;51.354;6.740;2023-02-11T10:29:25;42.63;;;24.90;;
8480;SDS011;4277;51.354;6.740;2023-02-11T10:31:51;45.87;;;25.60;;
8480;SDS011;4277;51.354;6.740;2023-02-11T10:34:18;47.77;;;25.47;;
8480;SDS011;4277;51.354;6.740;2023-02-11T10:36:44;43.50;;;25.07;;
8480;SDS011;4277;51.354;6.740;2023-02-11T10:39:12;46.77;;;25.70;;
8480;SDS011;4277;51.354;6.740;2023-02-11T10:41:39;51.43;;;25.40;;
8480;SDS011;4277;51.354;6.740;2023-02-11T10:44:06;41.57;;;25.00;;
8480;SDS011;4277;51.354;6.740;2023-02-11T10:46:33;48.57;;;25.87;;
8480;SDS011;4277;51.354;6.740;2023-02-11T10:49:04;47.30;;;25.47;;
8480;SDS011;4277;51.354;6.740;2023-02-11T10:51:30;53.60;;;26.13;;
8480;SDS011;4277;51.354;6.740;2023-02-11T10:56:29;47.77;;;26.87;;
8480;SDS011;4277;51.354;6.740;2023-02-11T10:58:59;52.97;;;27.13;;
8480;SDS011;4277;51.354;6.740;2023-02-11T11:01:44;49.17;;;29.75;;
8480;SDS011;4277;51.354;6.740;2023-02-11T11:05:14;49.53;;;26.80;;
8480;SDS011;4277;51.354;6.740;2023-02-11T11:07:14;45.13;;;26.80;;
8480;SDS011;4277;51.354;6.740;2023-02-11T11:09:45;46.57;;;26.07;;
8480;SDS011;4277;51.354;6.740;2023-02-11T11:14:57;49.07;;;26.40;;
8480;SDS011;4277;51.354;6.740;2023-02-11T11:17:23;46.27;;;25.07;;
8480;SDS011;4277;51.354;6.740;2023-02-11T11:19:53;53.47;;;26.93;;
8480;SDS011;4277;51.354;6.740;2023-02-11T11:22:19;49.87;;;25.83;;
8480;SDS011;4277;51.354;6.740;2023-02-11T11:24:46;49.17;;;26.40;;
8480;SDS011;4277;51.354;6.740;2023-02-11T11:27:18;47.53;;;25.87;;
8480;SDS011;4277;51.354;6.740;2023-02-11T11:29:47;47.00;;;26.50;;
8480;SDS011;4277;51.354;6.740;2023-02-11T11:32:23;48.07;;;26.33;;
8480;SDS011;4277;51.354;6.740;2023-02-11T11:34:50;52.00;;;27.13;;
8480;SDS011;4277;51.354;6.740;2023-02-11T11:39:57;47.60;;;25.83;;
8480;SDS011;4277;51.354;6.740;2023-02-11T11:42:26;50.57;;;26.90;;
8480;SDS011;4277;51.354;6.740;2023-02-11T11:45:00;46.70;;;25.57;;
8480;SDS011;4277;51.354;6.740;2023-02-11T11:47:39;51.73;;;26.43;;
8480;SDS011;4277;51.354;6.740;2023-02-11T11:52:49;47.03;;;26.40;;
8480;SDS011;4277;51.354;6.740;2023-02-11T11:55:24;51.90;;;27.53;;
8480;SDS011;4277;51.354;6.740;2023-02-11T11:57:50;55.07;;;28.53;;
8480;SDS011;4277;51.354;6.740;2023-02-11T12:00:25;47.67;;;25.87;;
8480;SDS011;4277;51.354;6.740;2023-02-11T12:02:58;49.47;;;28.40;;
8480;SDS011;4277;51.354;6.740;2023-02-11T12:05:36;50.63;;;28.93;;
8480;SDS011;4277;51.354;6.740;2023-02-11T12:16:32;51.13;;;29.20;;
8480;SDS011;4277;51.354;6.740;2023-02-11T12:19:17;49.30;;;27.73;;
8480;SDS011;4277;51.354;6.740;2023-02-11T12:24:50;48.10;;;26.77;;
8480;SDS011;4277;51.354;6.740;2023-02-11T12:27:24;50.73;;;28.30;;
8480;SDS011;4277;51.354;6.740;2023-02-11T12:32:38;52.00;;;30.67;;
8480;SDS011;4277;51.354;6.740;2023-02-11T12:35:51;52.17;;;30.17;;
8480;SDS011;4277;51.354;6.740;2023-02-11T12:38:05;51.40;;;28.93;;
8480;SDS011;4277;51.354;6.740;2023-02-11T12:45:45;53.30;;;27.97;;
8480;SDS011;4277;51.354;6.740;2023-02-11T12:48:20;54.83;;;28.70;;
8480;SDS011;4277;51.354;6.740;2023-02-11T12:55:45;49.13;;;27.63;;
8480;SDS011;4277;51.354;6.740;2023-02-11T12:58:17;49.10;;;27.27;;
8480;SDS011;4277;51.354;6.740;2023-02-11T13:00:46;51.00;;;28.07;;
8480;SDS011;4277;51.354;6.740;2023-02-11T13:05:49;53.83;;;29.47;;
8480;SDS011;4277;51.354;6.740;2023-02-11T13:11:03;51.00;;;29.37;;
8480;SDS011;4277;51.354;6.740;2023-02-11T13:13:59;50.70;;;29.47;;
8480;SDS011;4277;51.354;6.740;2023-02-11T13:16:35;46.07;;;29.23;;
8480;SDS011;4277;51.354;6.740;2023-02-11T13:21:50;50.33;;;29.43;;
8480;SDS011;4277;51.354;6.740;2023-02-11T13:24:24;51.53;;;29.83;;
8480;SDS011;4277;51.354;6.740;2023-02-11T13:26:56;55.80;;;30.83;;
8480;SDS011;4277;51.354;6.740;2023-02-11T13:31:53;49.73;;;29.50;;
8480;SDS011;4277;51.354;6.740;2023-02-11T13:34:52;49.10;;;29.07;;
8480;SDS011;4277;51.354;6.740;2023-02-11T13:37:18;50.20;;;27.57;;
8480;SDS011;4277;51.354;6.740;2023-02-11T13:40:49;47.57;;;28.00;;
8480;SDS011;4277;51.354;6.740;2023-02-11T13:42:46;50.50;;;28.20;;
8480;SDS011;4277;51.354;6.740;2023-02-11T13:47:59;51.43;;;28.80;;
8480;SDS011;4277;51.354;6.740;2023-02-11T13:50:25;47.80;;;27.93;;
8480;SDS011;4277;51.354;6.740;2023-02-11T13:52:56;43.07;;;27.60;;
8480;SDS011;4277;51.354;6.740;2023-02-11T13:55:23;45.03;;;28.00;;
8480;SDS011;4277;51.354;6.740;2023-02-11T14:17:44;47.00;;;29.47;;
8480;SDS011;4277;51.354;6.740;2023-02-11T14:22:54;49.53;;;27.73;;
8480;SDS011;4277;51.354;6.740;2023-02-11T14:25:21;50.63;;;29.17;;
8480;SDS011;4277;51.354;6.740;2023-02-11T14:27:52;41.70;;;27.70;;
8480;SDS011;4277;51.354;6.740;2023-02-11T14:30:25;46.07;;;27.93;;
8480;SDS011;4277;51.354;6.740;2023-02-11T14:41:19;49.03;;;28.13;;
8480;SDS011;4277;51.354;6.740;2023-02-11T14:43:47;45.27;;;28.57;;
8480;SDS011;4277;51.354;6.740;2023-02-11T14:46:16;48.80;;;29.33;;
8480;SDS011;4277;51.354;6.740;2023-02-11T14:48:44;48.43;;;30.17;;
8480;SDS011;4277;51.354;6.740;2023-02-11T14:54:17;54.87;;;29.50;;
8480;SDS011;4277;51.354;6.740;2023-02-11T14:56:41;47.00;;;28.93;;
8480;SDS011;4277;51.354;6.740;2023-02-11T14:59:18;50.13;;;29.57;;
8480;SDS011;4277;51.354;6.740;2023-02-11T15:01:47;50.13;;;28.43;;
8480;SDS011;4277;51.354;6.740;2023-02-11T15:04:24;47.17;;;28.20;;
8480;SDS011;4277;51.354;6.740;2023-02-11T15:06:50;49.13;;;28.77;;
8480;SDS011;4277;51.354;6.740;2023-02-11T15:09:33;50.43;;;28.37;;
8480;SDS011;4277;51.354;6.740;2023-02-11T15:12:01;44.97;;;27.73;;
8480;SDS011;4277;51.354;6.740;2023-02-11T15:14:31;51.67;;;28.73;;
8480;SDS011;4277;51.354;6.740;2023-02-11T15:16:59;52.17;;;28.53;;
8480;SDS011;4277;51.354;6.740;2023-02-11T15:21:51;47.10;;;28.17;;
8480;SDS011;4277;51.354;6.740;2023-02-11T15:24:22;51.37;;;28.73;;
8480;SDS011;4277;51.354;6.740;2023-02-11T15:26:58;48.10;;;28.83;;
8480;SDS011;4277;51.354;6.740;2023-02-11T15:29:27;45.20;;;28.30;;
8480;SDS011;4277;51.354;6.740;2023-02-11T15:34:49;46.23;;;26.93;;
8480;SDS011;4277;51.354;6.740;2023-02-11T15:37:24;51.53;;;28.20;;
8480;SDS011;4277;51.354;6.740;2023-02-11T15:39:50;46.50;;;26.90;;
8480;SDS011;4277;51.354;6.740;2023-02-11T15:44:42;49.17;;;27.57;;
8480;SDS011;4277;51.354;6.740;2023-02-11T15:47:09;47.93;;;27.70;;
8480;SDS011;4277;51.354;6.740;2023-02-11T15:49:36;48.13;;;28.17;;
8480;SDS011;4277;51.354;6.740;2023-02-11T15:52:02;43.03;;;26.33;;
8480;SDS011;4277;51.354;6.740;2023-02-11T15:54:28;46.10;;;28.30;;
8480;SDS011;4277;51.354;6.740;2023-02-11T15:57:03;46.60;;;28.23;;
8480;SDS011;4277;51.354;6.740;2023-02-11T15:59:39;53.47;;;28.27;;
8480;SDS011;4277;51.354;6.740;2023-02-11T16:02:15;44.00;;;26.97;;
8480;SDS011;4277;51.354;6.740;2023-02-11T16:04:51;48.80;;;28.60;;
8480;SDS011;4277;51.354;6.740;2023-02-11T16:10:02;50.17;;;28.37;;
8480;SDS011;4277;51.354;6.740;2023-02-11T16:12:28;50.90;;;29.17;;
8480;SDS011;4277;51.354;6.740;2023-02-11T16:14:54;43.07;;;27.20;;
8480;SDS011;4277;51.354;6.740;2023-02-11T16:17:24;49.03;;;28.23;;
8480;SDS011;4277;51.354;6.740;2023-02-11T16:19:52;46.10;;;28.10;;
8480;SDS011;4277;51.354;6.740;2023-02-11T16:22:26;46.13;;;27.73;;
8480;SDS011;4277;51.354;6.740;2023-02-11T16:24:54;48.50;;;28.20;;
8480;SDS011;4277;51.354;6.740;2023-02-11T16:27:26;47.50;;;28.07;;
8480;SDS011;4277;51.354;6.740;2023-02-11T16:29:54;52.33;;;29.47;;
8480;SDS011;4277;51.354;6.740;2023-02-11T16:32:22;53.67;;;30.03;;
8480;SDS011;4277;51.354;6.740;2023-02-11T16:34:48;48.90;;;29.83;;
8480;SDS011;4277;51.354;6.740;2023-02-11T16:37:14;50.67;;;29.77;;
8480;SDS011;4277;51.354;6.740;2023-02-11T16:39:40;52.73;;;30.80;;
8480;SDS011;4277;51.354;6.740;2023-02-11T16:42:06;49.87;;;30.93;;
8480;SDS011;4277;51.354;6.740;2023-02-11T16:44:33;49.63;;;30.73;;
8480;SDS011;4277;51.354;6.740;2023-02-11T16:46:59;48.13;;;30.77;;
8480;SDS011;4277;51.354;6.740;2023-02-11T16:49:30;54.93;;;30.13;;
8480;SDS011;4277;51.354;6.740;2023-02-11T16:51:58;48.47;;;29.90;;
8480;SDS011;4277;51.354;6.740;2023-02-11T16:54:27;52.23;;;29.90;;
8480;SDS011;4277;51.354;6.740;2023-02-11T16:56:54;51.37;;;31.23;;
8480;SDS011;4277;51.354;6.740;2023-02-11T16:59:20;53.50;;;31.67;;
8480;SDS011;4277;51.354;6.740;2023-02-11T17:01:47;54.33;;;31.27;;